Time;durP1;ratioP1;P1;durP2;ratioP2;P2;SDS_P1;SDS_P2;PMS_P1;PMS_P2;Temp;Humidity;BMP_temperature;BMP_pressure;BME280_temperature;BME280_humidity;BME280_pressure;Samples;Min_cycle;Max_cycle;Signal;HPM_P1;HPM_P2
2022/04/16 00:00:57;;;;;;;4.13;3.73;;;;;;;;;;5003710;28;20698;-63
2022/04/16 00:03:25;;;;;;;4.13;3.47;;;;;;;;;;4997191;28;20223;-63
2022/04/16 00:05:55;;;;;;;5.30;3.73;;;;;;;;;;5016777;28;20214;-63
2022/04/16 00:08:24;;;;;;;4.47;3.83;;;;;;;;;;5018856;28;20199;-61
2022/04/16 00:10:51;;;;;;;5.53;4.00;;;;;;;;;;5013363;28;20199;-62
2022/04/16 00:13:19;;;;;;;4.23;3.57;;;;;;;;;;5015868;28;20674;-62
2022/04/16 00:15:49;;;;;;;4.23;3.53;;;;;;;;;;5016446;28;20214;-62
2022/04/16 00:18:18;;;;;;;4.33;3.53;;;;;;;;;;5005670;28;20206;-63
2022/04/16 00:20:48;;;;;;;5.27;3.33;;;;;;;;;;5008035;28;20214;-62
2022/04/16 00:23:20;;;;;;;6.17;4.47;;;;;;;;;;5017292;28;20226;-63
2022/04/16 00:25:48;;;;;;;3.50;3.17;;;;;;;;;;5022203;28;20243;-63
2022/04/16 00:28:16;;;;;;;3.40;3.10;;;;;;;;;;4994202;28;20221;-63
2022/04/16 00:30:43;;;;;;;4.60;3.57;;;;;;;;;;5001492;28;20266;-63
2022/04/16 00:33:15;;;;;;;3.83;3.17;;;;;;;;;;5006528;28;20329;-63
2022/04/16 00:35:43;;;;;;;4.00;3.37;;;;;;;;;;5016796;28;20214;-63
2022/04/16 00:38:10;;;;;;;6.77;4.40;;;;;;;;;;5007262;28;20203;-63
2022/04/16 00:40:38;;;;;;;4.70;4.30;;;;;;;;;;4996714;28;20586;-63
2022/04/16 00:43:06;;;;;;;4.20;3.80;;;;;;;;;;5002047;28;20230;-63
2022/04/16 00:45:34;;;;;;;4.40;4.00;;;;;;;;;;5019197;28;20214;-63
2022/04/16 00:48:04;;;;;;;4.77;4.20;;;;;;;;;;5001843;28;20215;-63
2022/04/16 00:50:32;;;;;;;4.67;4.17;;;;;;;;;;5017496;28;20574;-63
2022/04/16 00:52:59;;;;;;;5.10;4.40;;;;;;;;;;5009819;28;20369;-62
2022/04/16 00:55:26;;;;;;;5.30;4.57;;;;;;;;;;5004356;28;20245;-62
2022/04/16 00:57:55;;;;;;;6.43;4.70;;;;;;;;;;5025245;28;20234;-62
2022/04/16 01:00:22;;;;;;;5.57;4.37;;;;;;;;;;5012675;28;20276;-62
2022/04/16 01:02:50;;;;;;;5.93;5.43;;;;;;;;;;5004866;28;20278;-62
2022/04/16 01:05:19;;;;;;;4.73;4.23;;;;;;;;;;4995597;28;20247;-61
2022/04/16 01:07:53;;;;;;;4.70;3.83;;;;;;;;;;5001984;28;20938;-62
2022/04/16 01:10:21;;;;;;;4.10;3.70;;;;;;;;;;5025103;28;20194;-62
2022/04/16 01:12:49;;;;;;;4.83;4.17;;;;;;;;;;5002016;28;20254;-62
2022/04/16 01:15:17;;;;;;;4.77;4.10;;;;;;;;;;5005465;28;20218;-62
2022/04/16 01:17:45;;;;;;;5.00;4.50;;;;;;;;;;5010538;28;20200;-64
2022/04/16 01:20:13;;;;;;;4.50;4.10;;;;;;;;;;5008593;28;20198;-64
2022/04/16 01:22:40;;;;;;;4.67;4.27;;;;;;;;;;4994404;28;20230;-62
2022/04/16 01:25:08;;;;;;;4.93;4.23;;;;;;;;;;5012458;28;20230;-62
2022/04/16 01:27:36;;;;;;;5.83;4.10;;;;;;;;;;4994355;28;20204;-63
2022/04/16 01:30:04;;;;;;;5.17;4.60;;;;;;;;;;4998543;28;20209;-65
2022/04/16 01:32:33;;;;;;;5.10;4.60;;;;;;;;;;5021075;28;20207;-63
2022/04/16 01:35:00;;;;;;;5.17;4.57;;;;;;;;;;5011530;28;20752;-62
2022/04/16 01:37:33;;;;;;;5.60;5.00;;;;;;;;;;5009102;28;20211;-62
2022/04/16 01:40:05;;;;;;;4.90;4.30;;;;;;;;;;5014581;28;20679;-63
2022/04/16 01:42:32;;;;;;;5.43;4.17;;;;;;;;;;5007500;28;20223;-63
2022/04/16 01:45:00;;;;;;;4.57;4.17;;;;;;;;;;5013868;28;20235;-63
2022/04/16 01:47:28;;;;;;;4.37;3.97;;;;;;;;;;5007783;28;20269;-63
2022/04/16 01:49:57;;;;;;;4.00;3.60;;;;;;;;;;5006982;28;20583;-63
2022/04/16 01:52:26;;;;;;;5.00;4.03;;;;;;;;;;5007635;28;20215;-63
2022/04/16 01:54:54;;;;;;;5.10;3.73;;;;;;;;;;4996436;28;20716;-63
2022/04/16 01:57:22;;;;;;;5.43;4.60;;;;;;;;;;4996246;28;20936;-63
2022/04/16 01:59:50;;;;;;;5.07;4.20;;;;;;;;;;5000224;28;20646;-63
2022/04/16 02:02:18;;;;;;;4.60;4.20;;;;;;;;;;5002388;28;20280;-63
2022/04/16 02:04:47;;;;;;;4.37;3.97;;;;;;;;;;5006650;28;20231;-62
2022/04/16 02:07:14;;;;;;;5.50;4.60;;;;;;;;;;4991734;28;20200;-62
2022/04/16 02:09:42;;;;;;;4.40;4.00;;;;;;;;;;5004711;28;20210;-64
2022/04/16 02:12:09;;;;;;;5.10;3.90;;;;;;;;;;5003279;28;20214;-63
2022/04/16 02:14:37;;;;;;;4.43;4.03;;;;;;;;;;5008066;28;20223;-63
2022/04/16 02:17:05;;;;;;;4.40;3.87;;;;;;;;;;5022272;28;20222;-63
2022/04/16 02:19:36;;;;;;;3.77;3.47;;;;;;;;;;5020600;28;20202;-63
2022/04/16 02:22:04;;;;;;;4.30;3.90;;;;;;;;;;5018058;28;20234;-63
2022/04/16 02:24:32;;;;;;;4.47;4.07;;;;;;;;;;5005226;28;20234;-63
2022/04/16 02:26:59;;;;;;;4.50;4.10;;;;;;;;;;5003636;28;20205;-62
2022/04/16 02:29:26;;;;;;;4.53;3.90;;;;;;;;;;5003306;28;20210;-62
2022/04/16 02:31:54;;;;;;;4.43;3.80;;;;;;;;;;5006878;28;20290;-62
2022/04/16 02:34:22;;;;;;;4.73;3.53;;;;;;;;;;5009675;28;20397;-62
2022/04/16 02:36:49;;;;;;;4.57;4.00;;;;;;;;;;5007682;28;20234;-62
2022/04/16 02:39:17;;;;;;;4.80;4.17;;;;;;;;;;4996982;28;20572;-63
2022/04/16 02:41:44;;;;;;;4.87;4.33;;;;;;;;;;5021969;28;20288;-63
2022/04/16 02:47:04;;;;;;;4.50;4.10;;;;;;;;;;4999679;28;20227;-62
2022/04/16 02:47:05;;;;;;;5.03;4.47;;;;;;;;;;5025048;28;20262;-61
2022/04/16 02:49:34;;;;;;;6.50;4.50;;;;;;;;;;5021477;28;20214;-64
2022/04/16 02:52:01;;;;;;;5.00;4.30;;;;;;;;;;5013332;28;20259;-63
2022/04/16 02:54:29;;;;;;;6.43;5.00;;;;;;;;;;5003283;28;20235;-64
2022/04/16 02:56:56;;;;;;;6.23;4.40;;;;;;;;;;5009498;28;20257;-61
2022/04/16 02:59:24;;;;;;;5.17;4.30;;;;;;;;;;5022998;28;20213;-62
2022/04/16 03:01:53;;;;;;;4.77;4.00;;;;;;;;;;5012939;28;20211;-62
2022/04/16 03:04:20;;;;;;;4.47;4.00;;;;;;;;;;5007741;28;20238;-62
2022/04/16 03:06:47;;;;;;;5.37;4.80;;;;;;;;;;5009697;28;20202;-61
2022/04/16 03:09:15;;;;;;;4.37;3.97;;;;;;;;;;5015574;28;20256;-63
2022/04/16 03:11:42;;;;;;;5.10;4.60;;;;;;;;;;5019629;28;20774;-63
2022/04/16 03:19:45;;;;;;;7.03;5.37;;;;;;;;;;5013569;28;20268;-63
2022/04/16 03:22:15;;;;;;;6.97;5.77;;;;;;;;;;5021360;28;20235;-63
2022/04/16 03:24:43;;;;;;;11.50;7.90;;;;;;;;;;4997879;28;20249;-61
2022/04/16 03:27:10;;;;;;;8.23;5.60;;;;;;;;;;5013722;28;20211;-63
2022/04/16 03:29:38;;;;;;;5.33;4.53;;;;;;;;;;5005341;28;20210;-63
2022/04/16 03:32:06;;;;;;;7.30;6.13;;;;;;;;;;5020396;28;20206;-63
2022/04/16 03:34:33;;;;;;;5.63;4.33;;;;;;;;;;5004130;28;20237;-64
2022/04/16 03:37:00;;;;;;;4.77;4.27;;;;;;;;;;5000635;28;20209;-63
2022/04/16 03:39:28;;;;;;;4.30;3.90;;;;;;;;;;5019034;28;20199;-63
2022/04/16 03:41:55;;;;;;;5.67;4.40;;;;;;;;;;4997830;28;20313;-63
2022/04/16 03:44:23;;;;;;;5.30;4.80;;;;;;;;;;4996033;28;20241;-62
2022/04/16 03:46:50;;;;;;;5.07;4.50;;;;;;;;;;5020497;28;20203;-63
2022/04/16 03:49:17;;;;;;;5.17;4.63;;;;;;;;;;5005203;28;20199;-63
2022/04/16 03:51:45;;;;;;;6.27;4.40;;;;;;;;;;5005938;28;20576;-64
2022/04/16 04:00:01;;;;;;;4.20;3.80;;;;;;;;;;5015333;28;20265;-63
2022/04/16 04:02:28;;;;;;;4.97;4.13;;;;;;;;;;5020221;28;20229;-63
2022/04/16 04:04:56;;;;;;;4.57;4.17;;;;;;;;;;5002188;28;20226;-63
2022/04/16 04:07:25;;;;;;;5.07;4.57;;;;;;;;;;5005162;28;20268;-62
2022/04/16 04:09:52;;;;;;;4.60;4.20;;;;;;;;;;5004640;28;21362;-63
2022/04/16 04:12:20;;;;;;;4.60;4.20;;;;;;;;;;5003043;28;20207;-64
2022/04/16 04:14:47;;;;;;;5.53;4.13;;;;;;;;;;5009955;28;20230;-64
2022/04/16 04:17:15;;;;;;;5.93;4.40;;;;;;;;;;5015588;28;20211;-64
2022/04/16 04:19:43;;;;;;;5.20;4.50;;;;;;;;;;5000185;28;20211;-63
2022/04/16 04:22:12;;;;;;;4.90;4.40;;;;;;;;;;4996868;28;20215;-65
2022/04/16 04:24:40;;;;;;;4.80;4.30;;;;;;;;;;5024066;28;20239;-63
2022/04/16 04:27:08;;;;;;;4.33;3.93;;;;;;;;;;5005749;28;21124;-63
2022/04/16 04:29:36;;;;;;;4.80;4.30;;;;;;;;;;4998678;28;20207;-63
2022/04/16 04:32:04;;;;;;;5.87;5.27;;;;;;;;;;4994107;28;20203;-64
2022/04/16 04:34:32;;;;;;;4.80;4.30;;;;;;;;;;5013323;28;20728;-63
2022/04/16 04:36:59;;;;;;;4.57;4.13;;;;;;;;;;5006808;28;20207;-63
2022/04/16 04:39:27;;;;;;;6.23;4.90;;;;;;;;;;5014411;28;20208;-62
2022/04/16 04:41:55;;;;;;;5.77;5.00;;;;;;;;;;4994446;28;20203;-63
2022/04/16 04:44:22;;;;;;;5.23;4.67;;;;;;;;;;5002440;28;20230;-62
2022/04/16 04:46:53;;;;;;;5.30;4.23;;;;;;;;;;4999401;28;20199;-62
2022/04/16 04:49:21;;;;;;;4.87;4.37;;;;;;;;;;5017967;28;20215;-64
2022/04/16 04:51:48;;;;;;;4.43;4.03;;;;;;;;;;5010031;28;20195;-62
2022/04/16 04:54:16;;;;;;;4.67;4.13;;;;;;;;;;5006491;28;20233;-63
2022/04/16 04:56:43;;;;;;;4.93;4.40;;;;;;;;;;5010292;28;20215;-63
2022/04/16 04:59:10;;;;;;;5.97;4.93;;;;;;;;;;5005500;28;20226;-64
2022/04/16 05:01:38;;;;;;;4.90;4.33;;;;;;;;;;5028122;28;20213;-64
2022/04/16 05:04:06;;;;;;;4.90;4.40;;;;;;;;;;5035040;28;20608;-63
2022/04/16 05:06:33;;;;;;;4.63;4.13;;;;;;;;;;5011391;28;20591;-62
2022/04/16 05:09:00;;;;;;;4.33;3.93;;;;;;;;;;5003523;28;20258;-62
2022/04/16 05:11:28;;;;;;;5.23;4.73;;;;;;;;;;5006737;28;20198;-62
2022/04/16 05:13:55;;;;;;;4.70;4.27;;;;;;;;;;5011888;28;20231;-63
2022/04/16 05:16:23;;;;;;;6.60;5.13;;;;;;;;;;5032131;28;20652;-62
2022/04/16 05:18:50;;;;;;;7.20;5.27;;;;;;;;;;5023935;28;20216;-62
2022/04/16 05:21:18;;;;;;;5.67;4.77;;;;;;;;;;5011600;28;20198;-63
2022/04/16 05:23:45;;;;;;;6.43;5.37;;;;;;;;;;5015663;28;20230;-63
2022/04/16 05:26:13;;;;;;;5.50;5.00;;;;;;;;;;5027614;28;20719;-63
2022/04/16 05:28:41;;;;;;;5.80;5.20;;;;;;;;;;5009224;28;20623;-62
2022/04/16 05:31:08;;;;;;;5.93;4.83;;;;;;;;;;5013325;28;20280;-63
2022/04/16 05:36:22;;;;;;;5.60;4.43;;;;;;;;;;5019134;28;20205;-62
2022/04/16 05:38:49;;;;;;;5.23;4.70;;;;;;;;;;5007409;28;20245;-63
2022/04/16 05:41:17;;;;;;;5.07;4.57;;;;;;;;;;5020705;28;20202;-62
2022/04/16 05:43:44;;;;;;;5.47;4.50;;;;;;;;;;5001194;28;20238;-63
2022/04/16 05:46:11;;;;;;;4.73;4.23;;;;;;;;;;5000047;28;20206;-63
2022/04/16 05:48:39;;;;;;;5.23;4.50;;;;;;;;;;5021832;28;20203;-64
2022/04/16 05:51:07;;;;;;;5.90;5.27;;;;;;;;;;5015355;28;20206;-62
2022/04/16 05:53:34;;;;;;;5.03;4.53;;;;;;;;;;5010234;28;20230;-63
2022/04/16 05:56:02;;;;;;;6.33;5.23;;;;;;;;;;5001620;28;20215;-62
2022/04/16 05:58:29;;;;;;;6.20;5.30;;;;;;;;;;5008710;28;20245;-63
2022/04/16 06:00:57;;;;;;;5.87;4.97;;;;;;;;;;5002440;28;20206;-62
2022/04/16 06:03:24;;;;;;;7.57;5.57;;;;;;;;;;5009250;28;20274;-62
2022/04/16 06:05:52;;;;;;;6.17;5.57;;;;;;;;;;5032166;28;20206;-63
2022/04/16 06:08:19;;;;;;;7.13;5.53;;;;;;;;;;5016883;28;20217;-63
2022/04/16 06:10:47;;;;;;;6.13;5.53;;;;;;;;;;5018712;28;20207;-62
2022/04/16 06:13:14;;;;;;;6.47;5.47;;;;;;;;;;5014873;28;20448;-62
2022/04/16 06:15:42;;;;;;;5.97;5.37;;;;;;;;;;5001891;28;20671;-63
2022/04/16 06:18:13;;;;;;;6.33;5.57;;;;;;;;;;5008274;28;20199;-62
2022/04/16 06:20:40;;;;;;;5.73;5.10;;;;;;;;;;5027606;28;20226;-62
2022/04/16 06:23:08;;;;;;;7.63;6.83;;;;;;;;;;5012046;28;20231;-63
2022/04/16 06:25:35;;;;;;;7.80;6.13;;;;;;;;;;5005653;28;20229;-63
2022/04/16 06:28:03;;;;;;;6.83;6.03;;;;;;;;;;5007925;28;20209;-62
2022/04/16 06:30:31;;;;;;;7.20;6.43;;;;;;;;;;5020542;28;20265;-63
2022/04/16 06:32:58;;;;;;;7.30;6.50;;;;;;;;;;5000500;28;20214;-63
2022/04/16 06:35:25;;;;;;;8.33;6.73;;;;;;;;;;5020624;28;20209;-62
2022/04/16 06:37:53;;;;;;;7.30;6.50;;;;;;;;;;5010706;28;20207;-63
2022/04/16 06:40:21;;;;;;;7.67;5.90;;;;;;;;;;4997954;28;20210;-63
2022/04/16 06:42:52;;;;;;;7.70;5.83;;;;;;;;;;5001731;28;20199;-63
2022/04/16 06:45:19;;;;;;;7.10;5.93;;;;;;;;;;5013709;28;20212;-62
2022/04/16 06:47:47;;;;;;;6.57;5.87;;;;;;;;;;4993641;28;20207;-62
2022/04/16 06:50:14;;;;;;;8.20;5.77;;;;;;;;;;5021380;28;20199;-63
2022/04/16 06:52:45;;;;;;;6.30;5.60;;;;;;;;;;5012499;28;20212;-62
2022/04/16 06:55:13;;;;;;;6.37;5.43;;;;;;;;;;5008510;28;20288;-62
2022/04/16 06:57:40;;;;;;;6.10;5.20;;;;;;;;;;5018513;28;21394;-62
2022/04/16 07:00:08;;;;;;;5.50;4.73;;;;;;;;;;5008915;28;20740;-62
2022/04/16 07:02:36;;;;;;;5.37;4.37;;;;;;;;;;5009734;28;20204;-62
2022/04/16 07:05:05;;;;;;;4.80;4.33;;;;;;;;;;5021154;28;20245;-63
2022/04/16 07:07:32;;;;;;;5.20;4.70;;;;;;;;;;4992228;28;20207;-61
2022/04/16 07:10:00;;;;;;;6.33;4.83;;;;;;;;;;4992145;28;20205;-62
2022/04/16 07:12:28;;;;;;;5.73;4.67;;;;;;;;;;4995819;28;20585;-62
2022/04/16 07:14:55;;;;;;;6.00;5.07;;;;;;;;;;4992156;28;20321;-61
2022/04/16 07:17:22;;;;;;;4.63;4.10;;;;;;;;;;5005909;28;20221;-62
2022/04/16 07:19:50;;;;;;;4.67;3.87;;;;;;;;;;5014975;28;20792;-62
2022/04/16 07:22:20;;;;;;;4.27;3.87;;;;;;;;;;5024139;28;20203;-63
2022/04/16 07:24:49;;;;;;;3.80;3.50;;;;;;;;;;5017815;28;20320;-63
2022/04/16 07:27:17;;;;;;;4.20;3.80;;;;;;;;;;4994995;28;20206;-63
2022/04/16 07:29:46;;;;;;;4.20;3.80;;;;;;;;;;5016021;28;20207;-61
2022/04/16 07:32:13;;;;;;;3.63;3.33;;;;;;;;;;5001183;28;20298;-63
2022/04/16 07:34:40;;;;;;;2.97;2.77;;;;;;;;;;5011573;28;20230;-62
2022/04/16 07:37:09;;;;;;;3.67;3.20;;;;;;;;;;5005769;28;20203;-62
2022/04/16 07:39:36;;;;;;;3.77;3.37;;;;;;;;;;4993742;28;20215;-62
2022/04/16 07:42:04;;;;;;;3.07;2.87;;;;;;;;;;5003668;28;20316;-61
2022/04/16 07:44:31;;;;;;;2.20;2.10;;;;;;;;;;5009969;28;20226;-62
2022/04/16 07:46:58;;;;;;;2.17;2.07;;;;;;;;;;5019803;28;20834;-61
2022/04/16 07:49:26;;;;;;;4.33;2.40;;;;;;;;;;4995221;28;20252;-62
2022/04/16 07:51:53;;;;;;;2.60;2.40;;;;;;;;;;4993534;28;20202;-62
2022/04/16 07:54:20;;;;;;;2.70;2.30;;;;;;;;;;5014941;28;20231;-61
2022/04/16 07:56:48;;;;;;;2.83;2.60;;;;;;;;;;5004129;28;21671;-61
2022/04/16 07:59:16;;;;;;;2.70;2.50;;;;;;;;;;5014831;28;20859;-62
2022/04/16 08:01:43;;;;;;;3.10;2.77;;;;;;;;;;5013451;28;20225;-62
2022/04/16 08:04:10;;;;;;;3.90;2.87;;;;;;;;;;5001209;28;20248;-63
2022/04/16 08:06:38;;;;;;;3.43;3.13;;;;;;;;;;5014576;28;20207;-63
2022/04/16 08:09:05;;;;;;;3.87;3.57;;;;;;;;;;4991503;28;20211;-62
2022/04/16 08:11:33;;;;;;;4.33;3.93;;;;;;;;;;4996835;28;20281;-62
2022/04/16 08:14:01;;;;;;;4.10;3.70;;;;;;;;;;5009678;28;20234;-62
2022/04/16 08:16:29;;;;;;;5.03;3.77;;;;;;;;;;5008054;28;20979;-63
2022/04/16 08:18:57;;;;;;;5.50;3.60;;;;;;;;;;5022891;28;20332;-62
2022/04/16 08:21:29;;;;;;;3.80;3.50;;;;;;;;;;5002256;28;20812;-62
2022/04/16 08:24:04;;;;;;;3.80;3.40;;;;;;;;;;4994321;28;20231;-62
2022/04/16 08:26:32;;;;;;;3.40;3.10;;;;;;;;;;4993673;28;20219;-62
2022/04/16 08:28:59;;;;;;;4.87;3.70;;;;;;;;;;5017811;28;20850;-64
2022/04/16 08:31:27;;;;;;;4.47;3.90;;;;;;;;;;5003889;28;20199;-62
2022/04/16 08:33:55;;;;;;;5.43;4.80;;;;;;;;;;4991273;28;20240;-61
2022/04/16 08:36:22;;;;;;;4.97;4.47;;;;;;;;;;5002362;28;20234;-62
2022/04/16 08:38:49;;;;;;;4.73;4.27;;;;;;;;;;5010090;28;20198;-64
2022/04/16 08:41:17;;;;;;;5.33;4.20;;;;;;;;;;5003212;28;20199;-63
2022/04/16 08:43:45;;;;;;;4.13;3.77;;;;;;;;;;5003718;28;20222;-62
2022/04/16 08:46:12;;;;;;;4.27;3.87;;;;;;;;;;5010771;28;20250;-62
2022/04/16 08:48:40;;;;;;;4.60;4.20;;;;;;;;;;5003824;28;20211;-62
2022/04/16 08:51:07;;;;;;;3.60;3.30;;;;;;;;;;5023103;28;20203;-61
2022/04/16 08:53:36;;;;;;;4.53;4.00;;;;;;;;;;5015335;28;20237;-63
2022/04/16 08:56:03;;;;;;;4.30;3.90;;;;;;;;;;5003804;28;20809;-62
2022/04/16 08:58:31;;;;;;;4.80;4.30;;;;;;;;;;5006162;28;20269;-61
2022/04/16 09:00:59;;;;;;;5.23;4.43;;;;;;;;;;5026805;28;20210;-62
2022/04/16 09:03:33;;;;;;;6.13;4.43;;;;;;;;;;5014158;28;20223;-62
2022/04/16 09:06:01;;;;;;;4.67;4.10;;;;;;;;;;5019605;28;20664;-62
2022/04/16 09:08:29;;;;;;;4.40;3.90;;;;;;;;;;5022497;28;20203;-63
2022/04/16 09:11:07;;;;;;;4.93;4.13;;;;;;;;;;5009176;28;20215;-63
2022/04/16 09:13:35;;;;;;;4.27;3.87;;;;;;;;;;5009118;28;20232;-64
2022/04/16 09:16:06;;;;;;;4.40;4.00;;;;;;;;;;5016358;28;20261;-64
2022/04/16 09:18:52;;;;;;;5.03;4.10;;;;;;;;;;5014244;28;20204;-62
2022/04/16 09:21:20;;;;;;;4.23;3.77;;;;;;;;;;5006281;28;20205;-62
2022/04/16 09:23:50;;;;;;;4.73;4.23;;;;;;;;;;5006253;28;20238;-62
2022/04/16 09:26:26;;;;;;;4.20;3.80;;;;;;;;;;5022381;28;20203;-61
2022/04/16 09:28:54;;;;;;;4.10;3.50;;;;;;;;;;5023742;28;20206;-62
2022/04/16 09:31:28;;;;;;;3.73;3.40;;;;;;;;;;5028179;28;20218;-63
2022/04/16 09:33:56;;;;;;;4.17;3.40;;;;;;;;;;5022696;28;20222;-62
2022/04/16 09:36:27;;;;;;;3.87;3.47;;;;;;;;;;5022550;28;20724;-63
2022/04/16 09:39:05;;;;;;;3.90;3.60;;;;;;;;;;5004873;28;20206;-61
2022/04/16 09:41:36;;;;;;;4.00;3.40;;;;;;;;;;5005996;28;20723;-61
2022/04/16 09:44:04;;;;;;;4.10;3.70;;;;;;;;;;5009096;28;20326;-62
2022/04/16 09:46:32;;;;;;;3.80;3.50;;;;;;;;;;5029973;28;20210;-63
2022/04/16 09:49:03;;;;;;;3.50;3.20;;;;;;;;;;5008397;28;20199;-62
2022/04/16 09:51:35;;;;;;;3.63;3.33;;;;;;;;;;5003755;28;20207;-62
2022/04/16 09:54:06;;;;;;;7.50;4.93;;;;;;;;;;5026790;28;20697;-61
2022/04/16 09:56:35;;;;;;;3.17;2.87;;;;;;;;;;5032377;28;20269;-63
2022/04/16 09:59:04;;;;;;;4.90;3.80;;;;;;;;;;5018225;28;20222;-61
2022/04/16 10:01:32;;;;;;;3.93;3.53;;;;;;;;;;5015070;28;20294;-64
2022/04/16 10:04:03;;;;;;;4.73;3.37;;;;;;;;;;5013648;28;20246;-63
2022/04/16 10:06:31;;;;;;;3.33;3.10;;;;;;;;;;5005510;28;20195;-62
2022/04/16 10:09:00;;;;;;;3.47;3.17;;;;;;;;;;5027221;28;20199;-62
2022/04/16 10:14:23;;;;;;;4.53;4.13;;;;;;;;;;5032116;28;20230;-62
2022/04/16 10:17:07;;;;;;;3.67;3.37;;;;;;;;;;5024336;28;20616;-62
2022/04/16 10:19:41;;;;;;;4.37;3.77;;;;;;;;;;5030381;28;20233;-63
2022/04/16 10:22:09;;;;;;;4.03;3.73;;;;;;;;;;5014763;28;20214;-62
2022/04/16 10:24:47;;;;;;;4.97;4.20;;;;;;;;;;5019761;28;20264;-62
2022/04/16 10:27:18;;;;;;;4.80;4.30;;;;;;;;;;4995163;28;20194;-63
2022/04/16 10:29:47;;;;;;;4.37;3.77;;;;;;;;;;4996754;28;20202;-61
2022/04/16 10:32:18;;;;;;;5.00;3.67;;;;;;;;;;5019913;28;20265;-64
2022/04/16 10:34:46;;;;;;;4.30;3.90;;;;;;;;;;5008291;28;20293;-64
2022/04/16 10:37:21;;;;;;;4.87;4.27;;;;;;;;;;5016036;28;20823;-63
2022/04/16 10:39:52;;;;;;;4.40;4.00;;;;;;;;;;5003721;28;20202;-61
2022/04/16 10:42:32;;;;;;;4.37;3.90;;;;;;;;;;4996764;28;20207;-63
2022/04/16 10:45:20;;;;;;;4.97;4.47;;;;;;;;;;5031985;28;20233;-63
2022/04/16 10:47:50;;;;;;;4.30;3.90;;;;;;;;;;5014011;28;20202;-62
2022/04/16 10:50:19;;;;;;;5.33;4.50;;;;;;;;;;5012931;28;20217;-65
2022/04/16 10:52:55;;;;;;;4.97;4.57;;;;;;;;;;5021928;28;20203;-62
2022/04/16 10:55:36;;;;;;;5.13;4.33;;;;;;;;;;5014416;28;20706;-62
2022/04/16 10:58:04;;;;;;;4.40;4.00;;;;;;;;;;5007349;28;20241;-62
2022/04/16 11:00:36;;;;;;;5.10;4.60;;;;;;;;;;5001403;28;20669;-61
2022/04/16 11:03:14;;;;;;;5.57;5.07;;;;;;;;;;5000463;28;20207;-63
2022/04/16 11:05:44;;;;;;;5.37;4.87;;;;;;;;;;5011116;28;20706;-63
2022/04/16 11:08:14;;;;;;;6.00;5.40;;;;;;;;;;5026653;28;20210;-62
2022/04/16 11:10:42;;;;;;;6.20;5.47;;;;;;;;;;5002946;28;20275;-62
2022/04/16 11:13:10;;;;;;;6.37;5.77;;;;;;;;;;5007635;28;20287;-62
2022/04/16 11:15:37;;;;;;;6.50;5.33;;;;;;;;;;5011585;28;20219;-64
2022/04/16 11:18:05;;;;;;;7.63;6.23;;;;;;;;;;5018530;28;20214;-64
2022/04/16 11:20:32;;;;;;;6.27;5.67;;;;;;;;;;5009353;28;20207;-60
2022/04/16 11:23:01;;;;;;;10.93;6.20;;;;;;;;;;5013638;28;20636;-62
2022/04/16 11:34:14;;;;;;;8.40;6.47;;;;;;;;;;5008495;28;20284;-62
2022/04/16 11:36:35;;;;;;;6.33;5.73;;;;;;;;;;5023783;28;20249;-61
2022/04/16 11:39:02;;;;;;;6.57;5.87;;;;;;;;;;5027150;28;20298;-62
2022/04/16 11:41:29;;;;;;;6.50;5.80;;;;;;;;;;5029084;28;20203;-62
2022/04/16 11:43:58;;;;;;;6.20;5.60;;;;;;;;;;5015732;28;20239;-63
2022/04/16 11:46:26;;;;;;;6.47;5.87;;;;;;;;;;5012218;28;20272;-61
2022/04/16 11:48:54;;;;;;;5.33;4.83;;;;;;;;;;5013463;28;20297;-61
2022/04/16 11:51:22;;;;;;;7.37;5.67;;;;;;;;;;5010286;28;20260;-62
2022/04/16 11:53:52;;;;;;;6.17;5.50;;;;;;;;;;5015455;28;20274;-62
2022/04/16 11:56:20;;;;;;;5.37;4.87;;;;;;;;;;5014272;28;20206;-63
2022/04/16 11:58:52;;;;;;;5.67;5.17;;;;;;;;;;5025687;28;20335;-62
2022/04/16 12:01:20;;;;;;;6.43;5.30;;;;;;;;;;5010493;28;20202;-63
2022/04/16 12:03:56;;;;;;;5.90;5.30;;;;;;;;;;5030849;28;20239;-62
2022/04/16 12:06:24;;;;;;;5.43;4.93;;;;;;;;;;5010864;28;20846;-63
2022/04/16 12:08:54;;;;;;;6.97;5.60;;;;;;;;;;5013103;28;20317;-65
2022/04/16 12:11:22;;;;;;;5.70;5.20;;;;;;;;;;5002502;28;20211;-62
2022/04/16 12:13:54;;;;;;;4.77;4.33;;;;;;;;;;5007224;28;20225;-66
2022/04/16 12:16:21;;;;;;;5.20;4.70;;;;;;;;;;5020411;28;20264;-62
2022/04/16 12:18:49;;;;;;;5.17;4.67;;;;;;;;;;5005355;28;20233;-62
2022/04/16 12:21:18;;;;;;;4.73;4.23;;;;;;;;;;5015623;28;20210;-62
2022/04/16 12:23:46;;;;;;;3.77;3.33;;;;;;;;;;5024494;28;20341;-62
2022/04/16 12:26:15;;;;;;;5.30;4.80;;;;;;;;;;5007828;28;20238;-63
2022/04/16 12:28:43;;;;;;;4.03;3.73;;;;;;;;;;5029979;28;20208;-62
2022/04/16 12:31:11;;;;;;;3.60;3.30;;;;;;;;;;5018187;28;20207;-63
2022/04/16 12:33:39;;;;;;;3.30;2.97;;;;;;;;;;5007539;28;20213;-63
2022/04/16 12:36:08;;;;;;;3.70;3.40;;;;;;;;;;5025099;28;20203;-63
2022/04/16 12:38:36;;;;;;;4.33;3.97;;;;;;;;;;5024784;28;20207;-62
2022/04/16 12:41:10;;;;;;;4.57;4.17;;;;;;;;;;5024476;28;20209;-63
2022/04/16 12:43:38;;;;;;;4.60;4.17;;;;;;;;;;5020713;28;20230;-63
2022/04/16 12:46:05;;;;;;;4.47;3.97;;;;;;;;;;5023224;28;20423;-63
2022/04/16 12:48:33;;;;;;;3.87;3.43;;;;;;;;;;5012997;28;20257;-63
2022/04/16 12:51:01;;;;;;;4.70;4.30;;;;;;;;;;5020494;28;20763;-62
2022/04/16 12:53:28;;;;;;;5.90;4.10;;;;;;;;;;5007759;28;20223;-62
2022/04/16 12:55:56;;;;;;;3.63;3.30;;;;;;;;;;5027516;28;20251;-62
2022/04/16 12:58:23;;;;;;;3.57;3.27;;;;;;;;;;5030437;28;20660;-63
2022/04/16 13:00:50;;;;;;;3.93;3.63;;;;;;;;;;5014418;28;20449;-64
2022/04/16 13:03:18;;;;;;;3.50;3.20;;;;;;;;;;5017209;28;20227;-63
2022/04/16 13:05:45;;;;;;;4.80;4.33;;;;;;;;;;5017213;28;20235;-63
2022/04/16 13:08:14;;;;;;;5.03;4.07;;;;;;;;;;5029983;28;20198;-63
2022/04/16 13:10:41;;;;;;;6.30;4.07;;;;;;;;;;5015544;28;20198;-63
2022/04/16 13:13:09;;;;;;;3.90;3.60;;;;;;;;;;5012447;28;20214;-63
2022/04/16 13:15:36;;;;;;;3.70;3.40;;;;;;;;;;5019406;28;20211;-63
2022/04/16 13:18:05;;;;;;;3.53;3.23;;;;;;;;;;5012049;28;20752;-63
2022/04/16 13:20:32;;;;;;;3.90;3.50;;;;;;;;;;5003733;28;20219;-63
2022/04/16 13:23:00;;;;;;;4.63;4.23;;;;;;;;;;5013073;28;20199;-63
2022/04/16 13:25:28;;;;;;;3.73;3.43;;;;;;;;;;5015273;28;20288;-63
2022/04/16 13:27:55;;;;;;;4.40;4.00;;;;;;;;;;5005302;28;20213;-61
2022/04/16 13:30:23;;;;;;;3.93;3.60;;;;;;;;;;5016564;28;20198;-62
2022/04/16 13:32:51;;;;;;;4.03;3.73;;;;;;;;;;5031881;28;20249;-62
2022/04/16 13:35:19;;;;;;;4.90;3.57;;;;;;;;;;5020233;28;20249;-62
2022/04/16 13:37:46;;;;;;;4.70;4.20;;;;;;;;;;5018314;28;20199;-62
2022/04/16 13:42:59;;;;;;;3.60;3.30;;;;;;;;;;5025005;28;20214;-63
2022/04/16 13:45:26;;;;;;;4.40;3.97;;;;;;;;;;5024755;28;20278;-63
2022/04/16 13:47:54;;;;;;;4.10;3.70;;;;;;;;;;5010765;28;20238;-63
2022/04/16 13:50:21;;;;;;;3.40;3.10;;;;;;;;;;5004946;28;20281;-63
2022/04/16 13:52:48;;;;;;;4.30;4.00;;;;;;;;;;5005600;28;20661;-63
2022/04/16 13:55:16;;;;;;;3.47;3.17;;;;;;;;;;5023324;28;20226;-63
2022/04/16 13:57:43;;;;;;;3.60;3.30;;;;;;;;;;5007175;28;20204;-63
2022/04/16 14:00:11;;;;;;;4.07;3.13;;;;;;;;;;5010611;28;20210;-64
2022/04/16 14:02:39;;;;;;;4.10;3.70;;;;;;;;;;5003465;28;20556;-65
2022/04/16 14:07:52;;;;;;;3.80;3.50;;;;;;;;;;5026300;28;20210;-63
2022/04/16 14:10:19;;;;;;;4.30;3.93;;;;;;;;;;5013059;28;20214;-63
2022/04/16 14:12:47;;;;;;;4.17;3.77;;;;;;;;;;5032555;28;20284;-62
2022/04/16 14:15:14;;;;;;;5.20;4.10;;;;;;;;;;5004752;28;20305;-63
2022/04/16 14:17:42;;;;;;;4.63;4.20;;;;;;;;;;5008121;28;20258;-63
2022/04/16 14:20:09;;;;;;;4.07;3.60;;;;;;;;;;5023812;28;20223;-63
2022/04/16 14:22:37;;;;;;;4.10;3.70;;;;;;;;;;5019991;28;20333;-63
2022/04/16 14:25:05;;;;;;;3.80;3.50;;;;;;;;;;5010614;28;20715;-63
2022/04/16 14:27:32;;;;;;;3.40;3.10;;;;;;;;;;5008158;28;21360;-62
2022/04/16 14:29:59;;;;;;;4.17;3.77;;;;;;;;;;5023005;28;20206;-61
2022/04/16 14:32:27;;;;;;;4.80;3.43;;;;;;;;;;5005198;28;20211;-62
2022/04/16 14:34:55;;;;;;;3.60;3.30;;;;;;;;;;5008394;28;20251;-62
2022/04/16 14:37:22;;;;;;;3.20;3.00;;;;;;;;;;5016973;28;20914;-62
2022/04/16 14:39:49;;;;;;;3.53;3.23;;;;;;;;;;5002285;28;20206;-62
2022/04/16 14:42:17;;;;;;;3.90;3.50;;;;;;;;;;5010831;28;20218;-62
2022/04/16 14:44:51;;;;;;;4.70;4.20;;;;;;;;;;5016543;28;20250;-63
2022/04/16 14:47:18;;;;;;;3.40;3.10;;;;;;;;;;5017978;28;20261;-63
2022/04/16 14:49:47;;;;;;;5.07;4.57;;;;;;;;;;5012610;28;20211;-63
2022/04/16 14:52:15;;;;;;;2.70;2.50;;;;;;;;;;4997993;28;20254;-63
2022/04/16 14:54:42;;;;;;;3.70;3.40;;;;;;;;;;5032891;28;20917;-63
2022/04/16 14:57:30;;;;;;;3.60;3.20;;;;;;;;;;5009872;28;20204;-63
2022/04/16 14:59:57;;;;;;;3.13;2.93;;;;;;;;;;5014435;28;20203;-63
2022/04/16 15:02:24;;;;;;;4.50;3.37;;;;;;;;;;5006509;28;20656;-63
2022/04/16 15:04:52;;;;;;;4.00;3.60;;;;;;;;;;5007087;28;20226;-65
2022/04/16 15:07:19;;;;;;;3.60;3.30;;;;;;;;;;5014750;28;20619;-62
2022/04/16 15:09:47;;;;;;;4.13;3.53;;;;;;;;;;5011997;28;20203;-63
2022/04/16 15:12:14;;;;;;;3.80;3.50;;;;;;;;;;5021562;28;20249;-63
2022/04/16 15:14:41;;;;;;;3.77;3.37;;;;;;;;;;5010070;28;20230;-63
2022/04/16 15:17:09;;;;;;;3.50;3.20;;;;;;;;;;5006202;28;20293;-63
2022/04/16 15:19:36;;;;;;;5.00;3.67;;;;;;;;;;5019991;28;20226;-64
2022/04/16 15:22:05;;;;;;;3.67;3.10;;;;;;;;;;5011641;28;20210;-62